Time;durP1;ratioP1;P1;durP2;ratioP2;P2;SDS_P1;SDS_P2;PMS_P1;PMS_P2;Temp;Humidity;BMP_temperature;BMP_pressure;BME280_temperature;BME280_humidity;BME280_pressure;Samples;Min_cycle;Max_cycle;Signal;HPM_P1;HPM_P2
2021/11/01 00:02:15;;;;;;;2.20;2.00;;;13.10;99.90;;;;;;5017519;28;20213;-82
2021/11/01 00:04:55;;;;;;;4.90;2.30;;;13.10;99.90;;;;;;5006380;28;20206;-83
2021/11/01 00:07:26;;;;;;;3.60;2.30;;;13.10;99.90;;;;;;4999789;28;20214;-83
2021/11/01 00:09:57;;;;;;;2.17;1.90;;;12.90;99.90;;;;;;5000101;28;20210;-83
2021/11/01 00:12:29;;;;;;;3.60;2.43;;;12.80;99.90;;;;;;5001457;28;20230;-84
2021/11/01 00:15:01;;;;;;;2.40;2.13;;;12.60;99.90;;;;;;5000177;28;20202;-85
2021/11/01 00:17:34;;;;;;;2.67;2.00;;;12.50;99.90;;;;;;4984875;28;20293;-83
2021/11/01 00:20:06;;;;;;;4.33;2.37;;;12.40;99.90;;;;;;4983571;28;20218;-83
2021/11/01 00:22:37;;;;;;;3.77;2.07;;;12.40;99.90;;;;;;4992534;28;20203;-84
2021/11/01 00:25:09;;;;;;;2.97;2.30;;;12.30;99.90;;;;;;5000151;28;20190;-83
2021/11/01 00:27:40;;;;;;;3.43;2.00;;;12.20;99.90;;;;;;5008538;28;20202;-83
2021/11/01 00:30:13;;;;;;;2.63;1.80;;;12.10;99.90;;;;;;4999700;28;20206;-83
2021/11/01 00:32:47;;;;;;;3.80;2.10;;;12.00;99.90;;;;;;4999157;28;20210;-83
2021/11/01 00:35:18;;;;;;;2.80;1.93;;;11.90;99.90;;;;;;5017515;28;20913;-85
2021/11/01 00:37:48;;;;;;;2.47;2.10;;;11.70;99.90;;;;;;5020164;28;20234;-84
2021/11/01 00:40:20;;;;;;;5.77;2.10;;;11.50;99.90;;;;;;5020613;28;20260;-84
2021/11/01 00:42:51;;;;;;;3.10;2.30;;;11.40;99.90;;;;;;5011744;28;20214;-83
2021/11/01 00:45:21;;;;;;;4.40;2.40;;;11.20;99.90;;;;;;4999194;28;20206;-82
2021/11/01 00:47:53;;;;;;;3.97;2.23;;;11.10;99.90;;;;;;4999387;28;20233;-84
2021/11/01 00:50:24;;;;;;;2.90;2.20;;;11.00;99.90;;;;;;4994853;28;20679;-82
2021/11/01 00:52:56;;;;;;;3.03;2.63;;;10.80;99.90;;;;;;4983619;28;20262;-84
2021/11/01 00:55:34;;;;;;;4.47;2.60;;;10.70;99.90;;;;;;4977611;28;20291;-83
2021/11/01 00:58:06;;;;;;;3.23;2.57;;;10.60;99.90;;;;;;4984500;28;20233;-84
2021/11/01 01:00:41;;;;;;;5.17;2.57;;;10.50;99.90;;;;;;4995914;28;20226;-84
2021/11/01 01:03:16;;;;;;;2.33;2.13;;;10.40;99.90;;;;;;4972718;28;20214;-82
2021/11/01 01:06:02;;;;;;;4.57;2.80;;;10.30;99.90;;;;;;4992980;28;20199;-84
2021/11/01 01:08:34;;;;;;;4.07;2.83;;;10.20;99.90;;;;;;5500942;23;20197;-83
2021/11/01 01:11:06;;;;;;;5.77;4.10;;;10.10;99.90;;;;;;5012819;28;20254;-83
2021/11/01 01:13:47;;;;;;;7.50;5.90;;;10.00;99.90;;;;;;5012681;28;20241;-83
2021/11/01 01:19:23;;;;;;;8.33;5.80;;;9.80;99.90;;;;;;5030993;28;20235;-87
2021/11/01 01:22:19;;;;;;;5.00;4.00;;;9.70;99.90;;;;;;5025318;28;20212;-87
2021/11/01 01:24:52;;;;;;;4.37;3.00;;;9.60;99.90;;;;;;5033298;28;20202;-86
2021/11/01 01:27:36;;;;;;;4.37;2.93;;;9.50;99.90;;;;;;5036174;28;20221;-87
2021/11/01 01:30:20;;;;;;;6.03;2.97;;;9.40;99.90;;;;;;5033045;28;20205;-86
2021/11/01 01:32:54;;;;;;;5.70;3.00;;;9.30;99.90;;;;;;5033581;28;20194;-87
2021/11/01 01:35:34;;;;;;;6.30;2.73;;;9.20;99.90;;;;;;5031523;28;20212;-87
2021/11/01 01:38:07;;;;;;;3.60;2.20;;;9.20;99.90;;;;;;5016462;28;20225;-86
2021/11/01 01:40:40;;;;;;;4.53;2.40;;;9.10;99.90;;;;;;5023058;28;20198;-86
2021/11/01 01:43:11;;;;;;;4.40;2.43;;;9.00;99.90;;;;;;5022709;28;20221;-88
2021/11/01 01:45:44;;;;;;;3.80;2.93;;;9.00;99.90;;;;;;5034975;28;20205;-88
2021/11/01 01:53:48;;;;;;;4.56;3.06;;;8.70;99.90;;;;;;4747573;22;10002315;-88
2021/11/01 01:56:25;;;;;;;6.57;3.40;;;8.60;99.90;;;;;;5005888;28;20252;-87
2021/11/01 01:59:05;;;;;;;4.97;3.13;;;8.70;99.90;;;;;;5010087;28;20337;-86
2021/11/01 02:04:22;;;;;;;5.57;3.80;;;8.50;99.90;;;;;;5473069;23;20264;-89
2021/11/01 02:07:15;;;;;;;8.03;4.80;;;8.50;99.90;;;;;;5006503;28;20208;-87
2021/11/01 02:09:58;;;;;;;6.33;3.93;;;8.40;99.90;;;;;;4990718;28;20222;-84
2021/11/01 02:12:35;;;;;;;5.53;3.63;;;8.40;99.90;;;;;;5007113;28;20205;-87
2021/11/01 02:15:12;;;;;;;5.93;3.70;;;8.30;99.90;;;;;;4999386;28;20562;-86
2021/11/01 02:17:44;;;;;;;4.67;3.50;;;8.30;99.90;;;;;;5002482;28;20202;-86
2021/11/01 02:20:21;;;;;;;6.10;3.83;;;8.20;99.90;;;;;;4996644;28;20225;-87
2021/11/01 02:23:04;;;;;;;6.90;4.23;;;8.20;99.90;;;;;;5001803;28;20214;-88
2021/11/01 02:25:44;;;;;;;7.43;4.07;;;8.10;99.90;;;;;;5004011;28;20220;-86
2021/11/01 02:28:19;;;;;;;5.77;3.60;;;8.10;99.90;;;;;;5008240;28;20212;-86
2021/11/01 02:30:54;;;;;;;5.80;3.93;;;8.00;99.90;;;;;;5010614;28;20240;-87
2021/11/01 02:33:28;;;;;;;5.83;3.73;;;8.00;99.90;;;;;;5009619;28;20194;-88
2021/11/01 02:36:08;;;;;;;6.17;3.70;;;7.90;99.90;;;;;;5103491;23;20239;-89
2021/11/01 02:38:57;;;;;;;5.70;3.90;;;7.90;99.90;;;;;;5039936;28;20256;-87
2021/11/01 02:41:41;;;;;;;8.77;4.47;;;7.90;99.90;;;;;;5030146;28;20264;-87
2021/11/01 02:52:25;;;;;;;4.10;3.00;;;7.60;99.90;;;;;;5232484;22;20589;-86
2021/11/01 02:54:58;;;;;;;5.20;3.80;;;7.60;99.90;;;;;;5035889;28;20270;-88
2021/11/01 02:57:38;;;;;;;3.40;3.10;;;7.50;99.90;;;;;;5034590;28;20188;-87
2021/11/01 03:03:13;;;;;;;7.70;3.50;;;7.50;99.90;;;;;;5032549;28;20205;-89
2021/11/01 03:05:48;;;;;;;7.07;4.40;;;7.50;99.90;;;;;;5031714;28;20209;-87
2021/11/01 03:08:30;;;;;;;7.27;4.60;;;7.40;99.90;;;;;;5033171;28;20204;-88
2021/11/01 03:11:02;;;;;;;7.70;4.63;;;7.50;99.90;;;;;;5169113;23;20319;-87
2021/11/01 03:13:48;;;;;;;9.67;5.40;;;7.40;99.90;;;;;;5037329;28;20271;-88
2021/11/01 03:16:26;;;;;;;11.23;6.47;;;7.40;99.90;;;;;;5037891;28;20220;-88
2021/11/01 03:19:07;;;;;;;11.00;7.50;;;7.30;99.90;;;;;;5034411;28;20247;-88
2021/11/01 03:21:51;;;;;;;10.87;8.23;;;7.30;99.90;;;;;;5033776;28;20213;-87
2021/11/01 03:24:24;;;;;;;12.27;9.00;;;7.20;99.90;;;;;;5032490;28;20198;-86
2021/11/01 03:26:59;;;;;;;13.50;10.33;;;7.20;99.90;;;;;;5033628;28;20201;-88
2021/11/01 03:29:43;;;;;;;16.57;11.80;;;7.20;99.90;;;;;;5025459;28;20221;-87
2021/11/01 03:32:16;;;;;;;15.07;11.80;;;7.20;99.90;;;;;;5029294;28;20666;-87
2021/11/01 03:34:49;;;;;;;14.63;11.73;;;7.10;99.90;;;;;;5029060;28;20206;-87
2021/11/01 03:37:21;;;;;;;16.17;11.43;;;7.10;99.90;;;;;;5035019;28;20262;-87
2021/11/01 03:39:54;;;;;;;13.90;10.10;;;7.10;99.90;;;;;;5032689;28;20225;-86
2021/11/01 03:42:28;;;;;;;15.33;10.10;;;7.00;99.90;;;;;;5036019;28;20205;-87
2021/11/01 03:45:08;;;;;;;13.13;8.53;;;7.00;99.90;;;;;;5026927;28;20285;-85
2021/11/01 03:47:42;;;;;;;9.37;6.90;;;6.90;99.90;;;;;;5027512;28;20259;-87
2021/11/01 03:50:27;;;;;;;8.57;5.77;;;6.90;99.90;;;;;;5024066;28;20889;-86
2021/11/01 03:52:58;;;;;;;6.63;4.70;;;6.90;99.90;;;;;;5027935;28;20212;-87
2021/11/01 03:58:31;;;;;;;6.67;4.43;;;6.80;99.90;;;;;;5033581;28;20236;-88
2021/11/01 04:01:05;;;;;;;6.97;4.47;;;6.90;99.90;;;;;;5029728;28;20206;-87
2021/11/01 04:03:36;;;;;;;4.37;3.30;;;6.80;99.90;;;;;;5028834;28;20670;-87
2021/11/01 04:06:08;;;;;;;6.40;3.60;;;6.80;99.90;;;;;;5026974;28;20266;-88
2021/11/01 04:08:39;;;;;;;5.53;3.70;;;6.80;99.90;;;;;;5016745;28;20196;-85
2021/11/01 04:11:20;;;;;;;8.07;4.20;;;6.70;99.90;;;;;;5024396;28;20233;-87
2021/11/01 04:13:56;;;;;;;7.13;3.93;;;6.80;99.90;;;;;;5036573;28;20204;-87
2021/11/01 04:16:38;;;;;;;5.10;3.53;;;6.70;99.90;;;;;;5026407;28;20907;-87
2021/11/01 04:19:32;;;;;;;5.60;3.37;;;6.70;99.90;;;;;;5017698;28;20226;-88
2021/11/01 04:22:06;;;;;;;5.33;3.07;;;6.70;99.90;;;;;;5014759;28;20206;-87
2021/11/01 04:24:39;;;;;;;4.43;3.10;;;6.70;99.90;;;;;;5024808;28;20209;-84
2021/11/01 04:27:12;;;;;;;4.37;2.90;;;6.70;99.90;;;;;;5015102;28;20204;-85
2021/11/01 04:29:43;;;;;;;4.17;3.03;;;6.60;99.90;;;;;;5033520;28;20203;-86
2021/11/01 04:32:24;;;;;;;5.60;3.90;;;6.60;99.90;;;;;;5029977;28;20214;-86
2021/11/01 04:35:02;;;;;;;4.50;3.50;;;6.50;99.90;;;;;;5015105;28;20216;-86
2021/11/01 04:37:38;;;;;;;7.17;3.93;;;6.50;99.90;;;;;;5031708;28;20209;-86
2021/11/01 04:40:26;;;;;;;5.43;3.33;;;6.50;99.90;;;;;;5031849;28;20244;-86
2021/11/01 04:54:22;;;;;;;6.90;3.97;;;6.30;99.90;;;;;;5023751;28;20271;-85
2021/11/01 04:56:53;;;;;;;5.17;3.67;;;6.30;99.90;;;;;;5019774;28;20222;-86
2021/11/01 04:59:25;;;;;;;8.37;5.00;;;6.30;99.90;;;;;;5009101;28;20237;-86
2021/11/01 05:01:56;;;;;;;7.80;5.93;;;6.20;99.90;;;;;;5019921;28;20654;-84
2021/11/01 05:04:32;;;;;;;10.30;7.57;;;6.20;99.90;;;;;;5018647;28;20213;-87
2021/11/01 05:07:04;;;;;;;10.90;6.80;;;6.10;99.90;;;;;;5032427;28;20202;-87
2021/11/01 05:09:38;;;;;;;7.90;6.40;;;6.00;99.90;;;;;;5037100;28;20217;-86
2021/11/01 05:15:05;;;;;;;9.13;5.93;;;6.00;99.90;;;;;;5035309;28;20206;-85
2021/11/01 05:17:52;;;;;;;8.50;6.00;;;5.90;99.90;;;;;;5012529;28;20206;-86
2021/11/01 05:20:36;;;;;;;6.97;5.37;;;5.90;99.90;;;;;;5017145;28;20324;-86
2021/11/01 05:23:14;;;;;;;9.73;6.10;;;5.90;99.90;;;;;;5017948;28;20296;-86
2021/11/01 05:25:49;;;;;;;9.73;6.77;;;5.90;99.90;;;;;;5016248;28;20694;-86
2021/11/01 05:28:26;;;;;;;13.10;7.67;;;5.90;99.90;;;;;;5018266;28;20245;-85
2021/11/01 05:30:59;;;;;;;11.10;7.73;;;5.80;99.90;;;;;;5024611;28;20235;-86
2021/11/01 05:33:51;;;;;;;14.13;8.30;;;5.80;99.90;;;;;;5027441;28;20224;-85
2021/11/01 05:36:25;;;;;;;13.33;8.30;;;5.70;99.90;;;;;;5001350;28;20647;-86
2021/11/01 05:38:56;;;;;;;9.43;7.50;;;5.60;99.90;;;;;;5019747;28;20202;-86
2021/11/01 05:41:28;;;;;;;11.30;7.63;;;5.60;99.90;;;;;;5018627;28;20236;-87
2021/11/01 05:43:59;;;;;;;9.63;7.43;;;5.70;99.90;;;;;;5012744;28;20249;-86
2021/11/01 05:46:36;;;;;;;10.30;7.07;;;5.70;99.90;;;;;;5022546;28;20236;-85
2021/11/01 05:49:09;;;;;;;8.93;6.63;;;5.70;99.90;;;;;;5032372;28;20273;-86
2021/11/01 05:51:42;;;;;;;9.63;5.83;;;5.70;99.90;;;;;;5043887;28;20243;-87
2021/11/01 05:54:16;;;;;;;13.07;5.70;;;5.70;99.90;;;;;;5032707;28;20205;-86
2021/11/01 05:56:53;;;;;;;5.77;3.70;;;5.70;99.90;;;;;;5017659;28;20648;-86
2021/11/01 05:59:57;;;;;;;4.57;3.40;;;5.70;99.90;;;;;;5018696;28;20209;-87
2021/11/01 06:02:48;;;;;;;4.87;3.17;;;5.70;99.90;;;;;;5014662;28;20257;-85
2021/11/01 06:05:26;;;;;;;5.67;4.00;;;5.60;99.90;;;;;;5015669;28;20240;-86
2021/11/01 06:08:23;;;;;;;5.57;4.27;;;5.60;99.90;;;;;;5006264;28;20214;-86
2021/11/01 06:13:40;;;;;;;6.03;4.33;;;5.60;99.90;;;;;;4994291;28;20694;-85
2021/11/01 06:16:12;;;;;;;6.57;4.90;;;5.60;99.90;;;;;;4995952;28;20230;-85
2021/11/01 06:18:43;;;;;;;6.60;4.90;;;5.60;99.90;;;;;;5007240;28;20208;-86
2021/11/01 06:21:17;;;;;;;8.13;6.27;;;5.60;99.90;;;;;;5037213;28;20267;-86
2021/11/01 06:23:53;;;;;;;10.97;7.73;;;5.50;99.90;;;;;;5026228;28;20217;-86
2021/11/01 06:26:27;;;;;;;14.23;8.50;;;5.50;99.90;;;;;;5015163;28;20213;-85
2021/11/01 06:29:04;;;;;;;11.40;9.00;;;5.50;99.90;;;;;;5016492;28;20216;-86
2021/11/01 06:31:43;;;;;;;6.43;5.43;;;5.50;99.90;;;;;;5016300;28;20205;-86
2021/11/01 06:40:06;;;;;;;3.13;2.60;;;5.50;99.90;;;;;;5016217;28;20292;-86
2021/11/01 06:42:53;;;;;;;4.43;2.30;;;5.60;99.90;;;;;;5003997;28;20217;-85
2021/11/01 06:51:31;;;;;;;3.73;2.50;;;5.50;99.90;;;;;;5029782;28;20202;-85
2021/11/01 07:16:29;;;;;;;4.13;2.33;;;5.50;99.90;;;;;;5011334;28;20238;-86
2021/11/01 07:19:04;;;;;;;4.57;2.83;;;5.50;99.90;;;;;;4998089;28;20280;-85
2021/11/01 07:22:07;;;;;;;3.50;2.40;;;5.50;99.90;;;;;;5022095;28;20225;-85
2021/11/01 08:27:10;;;;;;;3.47;2.00;;;5.40;99.90;;;;;;4997771;28;20277;-85
2021/11/01 08:38:24;;;;;;;4.20;2.20;;;5.30;99.90;;;;;;5014538;28;20720;-85
2021/11/01 08:49:48;;;;;;;4.33;2.03;;;5.40;99.90;;;;;;5017600;28;20210;-86
2021/11/01 09:04:01;;;;;;;1.60;1.10;;;5.80;99.90;;;;;;5018378;28;20220;-86
2021/11/01 09:21:15;;;;;;;1.43;1.10;;;6.40;99.90;;;;;;5017972;28;20229;-87
2021/11/01 09:23:51;;;;;;;1.27;1.10;;;6.40;99.90;;;;;;5018864;28;20209;-88
2021/11/01 09:26:27;;;;;;;1.00;0.90;;;6.50;99.90;;;;;;5018366;28;20678;-86
2021/11/01 09:29:11;;;;;;;1.43;0.80;;;6.50;99.90;;;;;;5019684;28;20213;-85
2021/11/01 09:37:30;;;;;;;1.67;1.20;;;6.50;99.90;;;;;;5033556;28;20194;-85
2021/11/01 09:42:51;;;;;;;2.13;1.00;;;6.50;99.90;;;;;;5018551;28;20242;-85
2021/11/01 09:45:26;;;;;;;1.30;0.97;;;6.50;99.90;;;;;;5018460;28;20217;-86
2021/11/01 09:47:58;;;;;;;1.50;1.00;;;6.40;99.90;;;;;;5017459;28;20295;-86
2021/11/01 09:50:30;;;;;;;2.23;1.20;;;6.40;99.90;;;;;;5011527;28;20206;-86
2021/11/01 09:53:06;;;;;;;2.30;1.30;;;6.40;99.90;;;;;;5017543;28;20256;-86
2021/11/01 10:01:17;;;;;;;2.30;1.10;;;6.10;99.90;;;;;;5015521;28;20347;-86
2021/11/01 10:03:50;;;;;;;3.37;1.37;;;6.10;99.90;;;;;;5017103;28;20642;-86
2021/11/01 10:06:23;;;;;;;1.93;1.40;;;6.00;99.90;;;;;;5015346;28;20209;-86
2021/11/01 10:08:56;;;;;;;1.60;1.20;;;6.00;99.90;;;;;;5015544;28;20206;-86
2021/11/01 10:11:33;;;;;;;1.70;1.30;;;6.00;99.90;;;;;;5014018;28;20213;-85
2021/11/01 10:14:07;;;;;;;4.30;1.30;;;6.00;99.90;;;;;;5016741;28;20248;-85
2021/11/01 10:19:33;;;;;;;1.33;0.97;;;5.90;99.90;;;;;;5015623;28;20210;-85
2021/11/01 10:22:07;;;;;;;1.90;1.50;;;5.90;99.90;;;;;;5015916;28;20267;-85
2021/11/01 10:24:41;;;;;;;2.07;1.43;;;5.90;99.90;;;;;;5016092;28;20205;-85
2021/11/01 10:27:14;;;;;;;3.33;1.53;;;5.80;99.90;;;;;;5023590;28;20204;-85
2021/11/01 10:29:57;;;;;;;2.00;1.40;;;5.80;99.90;;;;;;4997162;28;20214;-85
2021/11/01 10:32:36;;;;;;;1.90;1.20;;;5.90;99.90;;;;;;4995552;28;20642;-85
2021/11/01 10:35:18;;;;;;;1.97;1.70;;;5.90;99.90;;;;;;5000797;28;20209;-85
2021/11/01 10:38:12;;;;;;;1.50;1.27;;;6.00;99.90;;;;;;5016956;28;20220;-85
2021/11/01 10:43:46;;;;;;;1.63;1.40;;;6.10;99.90;;;;;;5015892;28;20213;-86
2021/11/01 11:12:08;;;;;;;1.77;1.17;;;7.40;99.90;;;;;;5036004;28;20264;-86
2021/11/01 11:14:43;;;;;;;1.20;1.10;;;7.50;99.90;;;;;;5036448;28;20244;-86
2021/11/01 11:17:33;;;;;;;1.57;1.07;;;7.50;99.90;;;;;;5035016;28;20211;-87
2021/11/01 11:26:07;;;;;;;1.20;1.00;;;7.30;99.90;;;;;;5027017;28;20189;-85
2021/11/01 11:49:17;;;;;;;1.73;1.13;;;6.70;99.90;;;;;;5026432;28;20229;-85
2021/11/01 11:52:00;;;;;;;1.37;1.20;;;6.60;99.90;;;;;;5034495;28;20189;-85
2021/11/01 11:54:37;;;;;;;3.50;1.20;;;6.50;99.90;;;;;;5037421;28;20213;-85
2021/11/01 11:57:22;;;;;;;1.93;1.20;;;6.50;99.90;;;;;;5022958;28;20573;-85
2021/11/01 11:59:55;;;;;;;1.57;1.10;;;6.40;99.90;;;;;;5015923;28;20211;-86
2021/11/01 12:02:38;;;;;;;2.03;1.00;;;6.40;99.90;;;;;;5013680;28;20240;-86
2021/11/01 12:05:35;;;;;;;1.53;1.00;;;6.30;99.90;;;;;;5031234;28;20587;-85
2021/11/01 12:08:10;;;;;;;1.87;1.20;;;6.20;99.90;;;;;;5024846;28;20681;-86
2021/11/01 12:14:17;;;;;;;3.50;1.23;;;6.10;99.90;;;;;;5020214;28;20304;-85
2021/11/01 12:17:06;;;;;;;1.70;1.20;;;6.10;99.90;;;;;;5015625;28;20328;-85
2021/11/01 12:19:38;;;;;;;1.13;1.03;;;6.00;99.90;;;;;;5018489;28;20219;-85
2021/11/01 12:22:13;;;;;;;2.00;0.90;;;6.00;99.90;;;;;;5018512;28;20226;-85
2021/11/01 12:24:54;;;;;;;1.30;1.07;;;5.90;99.90;;;;;;5019487;28;20248;-85
2021/11/01 12:27:27;;;;;;;1.23;0.90;;;5.90;99.90;;;;;;5018277;28;20233;-85
2021/11/01 12:30:03;;;;;;;1.40;1.30;;;5.80;99.90;;;;;;5023277;28;20215;-85
2021/11/01 12:32:36;;;;;;;3.10;0.90;;;5.70;99.90;;;;;;5019280;28;20299;-85
2021/11/01 12:35:15;;;;;;;1.40;1.30;;;5.70;99.90;;;;;;5015008;28;20264;-84
2021/11/01 12:37:55;;;;;;;0.97;0.80;;;5.60;99.90;;;;;;5019099;28;20214;-85
2021/11/01 12:40:33;;;;;;;1.10;1.00;;;5.60;99.90;;;;;;5018712;28;20207;-85
2021/11/01 12:43:18;;;;;;;2.33;1.00;;;5.50;99.90;;;;;;5018534;28;20239;-85
2021/11/01 12:46:19;;;;;;;1.10;1.00;;;5.50;99.90;;;;;;5017068;28;20256;-84
2021/11/01 12:57:28;;;;;;;1.47;1.20;;;5.30;99.90;;;;;;5007135;28;20256;-86
2021/11/01 13:00:00;;;;;;;1.13;0.97;;;5.30;99.90;;;;;;5000430;28;20206;-86
2021/11/01 13:02:39;;;;;;;1.90;1.10;;;5.30;99.90;;;;;;5000143;28;20258;-84
2021/11/01 13:05:16;;;;;;;1.07;0.87;;;5.30;99.90;;;;;;5002496;28;20233;-85
2021/11/01 13:07:56;;;;;;;1.30;1.10;;;5.20;99.90;;;;;;5020657;28;20205;-87
2021/11/01 13:10:36;;;;;;;1.20;1.10;;;5.30;99.90;;;;;;5014628;28;20663;-85
2021/11/01 13:19:10;;;;;;;3.90;1.20;;;5.10;99.90;;;;;;5018947;28;20283;-85
2021/11/01 13:21:48;;;;;;;1.20;1.10;;;5.20;99.90;;;;;;5018817;28;20209;-85
2021/11/01 13:24:21;;;;;;;1.73;1.17;;;5.10;99.90;;;;;;5017958;28;20232;-84
2021/11/01 13:27:11;;;;;;;1.60;0.93;;;5.10;99.90;;;;;;5005173;28;20205;-86
2021/11/01 13:35:38;;;;;;;2.63;1.30;;;5.20;99.90;;;;;;5016461;28;20241;-85
2021/11/01 13:38:10;;;;;;;2.90;1.20;;;5.30;99.90;;;;;;5002113;28;20695;-86
2021/11/01 13:40:44;;;;;;;0.90;0.90;;;5.40;99.90;;;;;;5018257;28;20220;-86
2021/11/01 13:43:26;;;;;;;1.27;1.10;;;5.60;99.90;;;;;;5014660;28;20231;-85
2021/11/01 13:46:01;;;;;;;1.60;1.30;;;5.70;99.90;;;;;;4998232;28;20221;-86
2021/11/01 13:48:34;;;;;;;2.07;1.33;;;5.80;99.90;;;;;;4996522;28;20218;-86
2021/11/01 13:51:10;;;;;;;1.77;1.40;;;6.10;99.90;;;;;;5013458;28;20651;-85
2021/11/01 13:54:05;;;;;;;1.10;1.00;;;6.30;99.90;;;;;;5015721;28;20280;-85
2021/11/01 13:56:41;;;;;;;1.30;0.93;;;6.70;99.90;;;;;;5016909;28;20264;-85
2021/11/01 13:59:26;;;;;;;2.17;1.30;;;6.90;99.90;;;;;;5019430;28;20205;-85
2021/11/01 14:02:41;;;;;;;1.30;1.10;;;7.00;99.90;;;;;;5017501;28;20288;-86
2021/11/01 14:13:56;;;;;;;2.37;1.20;;;7.50;99.90;;;;;;5034102;28;20213;-86
2021/11/01 14:16:32;;;;;;;2.53;1.03;;;7.50;99.90;;;;;;5031438;28;20211;-87
2021/11/01 14:19:16;;;;;;;2.13;1.20;;;7.60;99.90;;;;;;5029970;28;20193;-86
2021/11/01 14:27:41;;;;;;;1.17;1.07;;;7.60;99.90;;;;;;5028876;28;20201;-86
2021/11/01 14:33:19;;;;;;;2.20;1.00;;;8.00;99.90;;;;;;5023908;28;20205;-86
2021/11/01 14:36:15;;;;;;;1.37;1.10;;;8.10;99.90;;;;;;5016120;28;20224;-85
2021/11/01 15:19:10;;;;;;;1.43;0.93;;;9.50;99.90;;;;;;5098217;28;20220;-86
2021/11/01 15:21:53;;;;;;;2.10;0.90;;;9.40;99.90;;;;;;5104344;28;20648;-86
2021/11/01 15:33:24;;;;;;;1.27;1.00;;;9.50;99.90;;;;;;5029939;28;20208;-86
2021/11/01 15:36:25;;;;;;;1.13;1.03;;;9.70;99.90;;;;;;5037764;28;20232;-86
2021/11/01 16:18:37;;;;;;;1.53;1.00;;;11.00;99.90;;;;;;5055349;28;20204;-83
2021/11/01 16:21:09;;;;;;;1.67;1.10;;;11.30;99.90;;;;;;5097066;28;20239;-84
2021/11/01 16:23:40;;;;;;;1.13;0.97;;;11.40;99.90;;;;;;5112277;28;20368;-84
2021/11/01 16:26:27;;;;;;;1.50;1.00;;;11.30;99.90;;;;;;5098029;28;20216;-84
2021/11/01 16:29:03;;;;;;;1.13;0.87;;;11.40;99.90;;;;;;5094800;28;20218;-84
2021/11/01 16:31:45;;;;;;;1.20;1.00;;;11.30;99.90;;;;;;5102565;28;20226;-83
2021/11/01 16:34:20;;;;;;;0.97;0.80;;;11.50;99.90;;;;;;5115692;28;20232;-84
2021/11/01 16:39:47;;;;;;;1.80;1.13;;;11.70;99.90;;;;;;5132509;28;20271;-84
2021/11/01 16:42:24;;;;;;;1.50;1.10;;;11.90;99.90;;;;;;5133143;28;20274;-83
2021/11/01 16:44:56;;;;;;;1.10;1.00;;;11.90;99.90;;;;;;5132714;28;20213;-86
2021/11/01 16:47:27;;;;;;;1.50;1.00;;;11.90;99.90;;;;;;5121145;28;20220;-84
2021/11/01 16:50:01;;;;;;;1.63;1.03;;;12.10;99.90;;;;;;5112335;28;20203;-85
2021/11/01 16:52:33;;;;;;;1.83;1.10;;;12.30;99.90;;;;;;5111492;28;20199;-84
2021/11/01 16:55:11;;;;;;;1.27;1.00;;;12.20;99.90;;;;;;5103166;28;20203;-85
2021/11/01 16:57:46;;;;;;;1.23;1.00;;;12.20;99.90;;;;;;5111624;28;20233;-84
2021/11/01 17:00:26;;;;;;;1.83;0.93;;;12.10;99.90;;;;;;5108998;28;20218;-84
2021/11/01 17:23:19;;;;;;;2.23;1.80;;;12.20;99.90;;;;;;5100942;28;20203;-85
2021/11/01 17:26:01;;;;;;;4.20;2.60;;;12.20;99.90;;;;;;5102444;28;20207;-85
2021/11/01 17:28:49;;;;;;;3.60;2.90;;;12.10;99.90;;;;;;5096996;28;20215;-85
2021/11/01 17:37:08;;;;;;;5.30;2.10;;;11.80;99.90;;;;;;5075781;28;20229;-86
2021/11/01 18:39:37;;;;;;;3.00;1.00;;;14.50;99.90;;;;;;5103123;28;20218;-85
2021/11/01 18:53:34;;;;;;;1.83;0.90;;;14.70;99.90;;;;;;5078989;28;20207;-86
2021/11/01 18:56:10;;;;;;;1.83;1.00;;;14.80;99.90;;;;;;5090450;28;20213;-85
2021/11/01 18:58:44;;;;;;;1.20;1.10;;;14.80;99.90;;;;;;5108184;28;20206;-86
2021/11/01 19:01:16;;;;;;;1.60;0.97;;;14.80;99.90;;;;;;5100654;28;20229;-85
2021/11/01 19:03:51;;;;;;;2.07;1.23;;;14.80;99.90;;;;;;5106629;28;20214;-85
2021/11/01 19:06:32;;;;;;;1.13;1.00;;;14.80;99.90;;;;;;5105263;28;20201;-86
2021/11/01 19:09:19;;;;;;;1.10;1.00;;;14.90;99.90;;;;;;5096721;28;20599;-86
2021/11/01 20:04:05;;;;;;;0.90;0.90;;;13.90;99.90;;;;;;5083958;28;20219;-84
2021/11/01 20:06:51;;;;;;;1.47;1.20;;;13.90;99.90;;;;;;5080149;28;20230;-85
2021/11/01 20:12:41;;;;;;;1.03;0.93;;;13.80;99.90;;;;;;5070861;28;20231;-86
2021/11/01 20:15:31;;;;;;;4.03;1.30;;;13.90;99.90;;;;;;5093487;28;20227;-85
2021/11/01 21:26:20;;;;;;;5.00;3.30;;;12.50;99.90;;;;;;4995291;28;20255;-85
2021/11/01 21:28:52;;;;;;;5.93;3.37;;;12.60;99.90;;;;;;5020128;28;20221;-85
2021/11/01 21:31:24;;;;;;;8.10;3.47;;;12.50;99.90;;;;;;5031296;28;20197;-85
2021/11/01 21:34:00;;;;;;;5.27;3.17;;;12.50;99.90;;;;;;5033741;28;20220;-85
2021/11/01 21:36:34;;;;;;;6.00;3.37;;;12.60;99.90;;;;;;5010631;28;20306;-85
2021/11/01 21:39:06;;;;;;;6.33;3.23;;;12.50;99.90;;;;;;5013341;28;20330;-86
2021/11/01 21:41:38;;;;;;;8.27;3.57;;;12.60;99.90;;;;;;5015888;28;20290;-85
2021/11/01 21:44:10;;;;;;;5.43;3.13;;;12.60;99.90;;;;;;5028137;28;20214;-85
2021/11/01 21:46:43;;;;;;;11.73;3.73;;;12.60;99.90;;;;;;5014763;28;20252;-86
2021/11/01 21:49:14;;;;;;;6.23;3.33;;;12.60;99.90;;;;;;5009542;28;20258;-85
2021/11/01 21:51:48;;;;;;;7.77;3.13;;;12.50;99.90;;;;;;5010814;28;20202;-86
2021/11/01 21:54:27;;;;;;;7.43;3.60;;;12.40;99.90;;;;;;5019108;28;20213;-85
2021/11/01 21:57:04;;;;;;;6.90;3.17;;;12.30;99.90;;;;;;5011933;28;20206;-84
2021/11/01 22:16:46;;;;;;;4.90;3.53;;;12.10;99.90;;;;;;5003931;28;20214;-82
2021/11/01 22:25:18;;;;;;;2.63;2.00;;;11.90;99.90;;;;;;5011803;28;20248;-82
2021/11/01 22:33:54;;;;;;;2.90;1.83;;;11.70;99.90;;;;;;5026741;28;20272;-84
2021/11/01 22:45:16;;;;;;;3.10;1.77;;;11.40;99.90;;;;;;4927092;29;20215;-81
2021/11/01 22:56:48;;;;;;;1.80;1.40;;;11.10;99.90;;;;;;5003713;28;20227;-81
2021/11/01 22:59:22;;;;;;;3.57;1.80;;;11.10;99.90;;;;;;5010635;28;20214;-81
2021/11/01 23:01:53;;;;;;;3.23;1.73;;;11.00;99.90;;;;;;5009097;28;20221;-82
2021/11/01 23:04:39;;;;;;;1.70;1.60;;;10.90;99.90;;;;;;5006245;28;20210;-82
2021/11/01 23:32:25;;;;;;;2.60;1.60;;;10.30;99.90;;;;;;4954202;28;20215;-82
2021/11/01 23:34:57;;;;;;;1.83;1.43;;;10.40;99.90;;;;;;4993864;28;20221;-82
2021/11/01 23:37:28;;;;;;;3.30;1.60;;;10.40;99.90;;;;;;4991122;28;20636;-83
2021/11/01 23:40:00;;;;;;;2.77;1.90;;;10.30;99.90;;;;;;5000254;28;20206;-83
2021/11/01 23:42:31;;;;;;;2.57;1.60;;;10.30;99.90;;;;;;5009430;28;20206;-84
2021/11/01 23:45:02;;;;;;;2.00;1.70;;;10.30;99.90;;;;;;5009385;28;20199;-83
2021/11/01 23:47:36;;;;;;;1.93;1.73;;;10.30;99.90;;;;;;5009835;28;20253;-81
2021/11/01 23:50:08;;;;;;;4.67;2.03;;;10.30;99.90;;;;;;4993570;28;20266;-82
2021/11/01 23:52:41;;;;;;;2.63;2.43;;;10.30;99.90;;;;;;5007563;28;20203;-82
2021/11/01 23:55:13;;;;;;;3.70;2.27;;;10.30;99.90;;;;;;5015146;28;20209;-82
2021/11/01 23:57:44;;;;;;;3.10;2.40;;;10.30;99.90;;;;;;5013125;28;20194;-84
